sensor_id;sensor_type;location;lat;lon;timestamp;pressure;altitude;pressure_sealevel;temperature;humidity
9187;BME280;7273;48.902;9.410;2023-05-22T00:02:01;97601.00;;;16.14;62.71
9187;BME280;7273;48.902;9.410;2023-05-22T00:04:27;97600.06;;;16.10;62.89
9187;BME280;7273;48.902;9.410;2023-05-22T00:06:54;97599.59;;;16.08;62.85
9187;BME280;7273;48.902;9.410;2023-05-22T00:09:21;97605.38;;;16.06;62.98
9187;BME280;7273;48.902;9.410;2023-05-22T00:11:47;97601.81;;;16.06;62.78
9187;BME280;7273;48.902;9.410;2023-05-22T00:14:12;97599.44;;;16.04;62.93
9187;BME280;7273;48.902;9.410;2023-05-22T00:16:38;97598.31;;;16.05;62.93
9187;BME280;7273;48.902;9.410;2023-05-22T00:19:04;97603.28;;;16.03;62.99
9187;BME280;7273;48.902;9.410;2023-05-22T00:21:32;97604.72;;;16.01;63.05
9187;BME280;7273;48.902;9.410;2023-05-22T00:24:00;97595.59;;;15.97;63.10
9187;BME280;7273;48.902;9.410;2023-05-22T00:26:28;97597.50;;;15.96;63.29
9187;BME280;7273;48.902;9.410;2023-05-22T00:28:55;97595.91;;;15.95;63.23
9187;BME280;7273;48.902;9.410;2023-05-22T00:31:21;97593.97;;;15.96;63.09
9187;BME280;7273;48.902;9.410;2023-05-22T00:33:47;97589.16;;;15.93;63.29
9187;BME280;7273;48.902;9.410;2023-05-22T00:36:13;97593.84;;;15.84;63.42
9187;BME280;7273;48.902;9.410;2023-05-22T00:38:39;97596.09;;;15.82;63.63
9187;BME280;7273;48.902;9.410;2023-05-22T00:41:05;97593.03;;;15.75;63.82
9187;BME280;7273;48.902;9.410;2023-05-22T00:43:32;97590.78;;;15.68;63.96
9187;BME280;7273;48.902;9.410;2023-05-22T00:45:58;97592.72;;;15.68;64.03
9187;BME280;7273;48.902;9.410;2023-05-22T00:48:23;97592.72;;;15.68;63.97
9187;BME280;7273;48.902;9.410;2023-05-22T00:50:50;97596.88;;;15.65;63.95
9187;BME280;7273;48.902;9.410;2023-05-22T00:53:19;97584.22;;;15.61;64.02
9187;BME280;7273;48.902;9.410;2023-05-22T00:55:45;97593.22;;;15.61;64.11
9187;BME280;7273;48.902;9.410;2023-05-22T00:58:16;97587.09;;;15.56;64.20
9187;BME280;7273;48.902;9.410;2023-05-22T01:00:42;97589.16;;;15.50;64.15
9187;BME280;7273;48.902;9.410;2023-05-22T01:03:09;97588.72;;;15.48;64.32
9187;BME280;7273;48.902;9.410;2023-05-22T01:05:39;97584.69;;;15.46;64.42
9187;BME280;7273;48.902;9.410;2023-05-22T01:08:06;97579.88;;;15.43;64.41
9187;BME280;7273;48.902;9.410;2023-05-22T01:10:33;97587.06;;;15.39;64.43
9187;BME280;7273;48.902;9.410;2023-05-22T01:13:10;97585.75;;;15.36;64.71
9187;BME280;7273;48.902;9.410;2023-05-22T01:18:44;97584.78;;;15.32;64.90
9187;BME280;7273;48.902;9.410;2023-05-22T01:27:15;97592.78;;;15.29;65.02
9187;BME280;7273;48.902;9.410;2023-05-22T01:32:24;97595.19;;;15.22;64.74
9187;BME280;7273;48.902;9.410;2023-05-22T01:34:53;97593.75;;;15.24;64.83
9187;BME280;7273;48.902;9.410;2023-05-22T01:37:19;97597.91;;;15.22;64.59
9187;BME280;7273;48.902;9.410;2023-05-22T01:39:50;97599.34;;;15.19;64.72
9187;BME280;7273;48.902;9.410;2023-05-22T01:42:17;97602.38;;;15.18;64.85
9187;BME280;7273;48.902;9.410;2023-05-22T01:44:43;97609.28;;;15.15;64.84
9187;BME280;7273;48.902;9.410;2023-05-22T01:47:09;97604.47;;;15.12;65.01
9187;BME280;7273;48.902;9.410;2023-05-22T01:49:35;97603.81;;;15.07;65.05
9187;BME280;7273;48.902;9.410;2023-05-22T01:52:16;97603.50;;;15.08;65.47
9187;BME280;7273;48.902;9.410;2023-05-22T01:54:54;97609.25;;;15.07;65.43
9187;BME280;7273;48.902;9.410;2023-05-22T01:57:30;97611.81;;;15.03;65.39
9187;BME280;7273;48.902;9.410;2023-05-22T02:00:04;97605.69;;;14.98;65.37
9187;BME280;7273;48.902;9.410;2023-05-22T02:02:38;97610.34;;;14.97;65.44
9187;BME280;7273;48.902;9.410;2023-05-22T02:05:08;97609.69;;;14.92;65.11
9187;BME280;7273;48.902;9.410;2023-05-22T02:07:39;97608.09;;;14.91;65.61
9187;BME280;7273;48.902;9.410;2023-05-22T02:10:07;97616.25;;;14.91;65.52
9187;BME280;7273;48.902;9.410;2023-05-22T02:12:34;97610.31;;;14.89;65.63
9187;BME280;7273;48.902;9.410;2023-05-22T02:15:00;97606.47;;;14.90;65.34
9187;BME280;7273;48.902;9.410;2023-05-22T02:17:26;97616.91;;;14.88;65.53
9187;BME280;7273;48.902;9.410;2023-05-22T02:19:52;97616.91;;;14.88;65.46
9187;BME280;7273;48.902;9.410;2023-05-22T02:22:17;97611.75;;;14.86;65.57
9187;BME280;7273;48.902;9.410;2023-05-22T02:24:46;97617.22;;;14.86;65.45
9187;BME280;7273;48.902;9.410;2023-05-22T02:27:12;97611.09;;;14.80;65.33
9187;BME280;7273;48.902;9.410;2023-05-22T02:29:38;97616.03;;;14.78;65.71
9187;BME280;7273;48.902;9.410;2023-05-22T02:32:04;97610.72;;;14.73;66.08
9187;BME280;7273;48.902;9.410;2023-05-22T02:34:29;97615.03;;;14.66;65.79
9187;BME280;7273;48.902;9.410;2023-05-22T02:36:59;97611.19;;;14.67;65.92
9187;BME280;7273;48.902;9.410;2023-05-22T02:39:28;97613.09;;;14.66;65.99
9187;BME280;7273;48.902;9.410;2023-05-22T02:41:53;97614.53;;;14.64;66.04
9187;BME280;7273;48.902;9.410;2023-05-22T02:44:19;97607.81;;;14.61;65.88
9187;BME280;7273;48.902;9.410;2023-05-22T02:46:44;97618.53;;;14.58;66.00
9187;BME280;7273;48.902;9.410;2023-05-22T02:49:09;97611.28;;;14.53;65.91
9187;BME280;7273;48.902;9.410;2023-05-22T02:51:35;97610.50;;;14.53;66.02
9187;BME280;7273;48.902;9.410;2023-05-22T02:54:01;97615.94;;;14.53;66.12
9187;BME280;7273;48.902;9.410;2023-05-22T02:56:26;97611.13;;;14.50;66.00
9187;BME280;7273;48.902;9.410;2023-05-22T02:58:53;97615.88;;;14.44;66.09
9187;BME280;7273;48.902;9.410;2023-05-22T03:01:18;97616.69;;;14.45;66.34
9187;BME280;7273;48.902;9.410;2023-05-22T03:03:44;97613.78;;;14.41;66.39
9187;BME280;7273;48.902;9.410;2023-05-22T03:06:09;97614.72;;;14.37;66.67
9187;BME280;7273;48.902;9.410;2023-05-22T03:08:34;97614.56;;;14.33;66.56
9187;BME280;7273;48.902;9.410;2023-05-22T03:11:02;97611.50;;;14.35;66.52
9187;BME280;7273;48.902;9.410;2023-05-22T03:13:28;97617.13;;;14.38;66.58
9187;BME280;7273;48.902;9.410;2023-05-22T03:15:53;97613.59;;;14.38;66.54
9187;BME280;7273;48.902;9.410;2023-05-22T03:18:19;97611.19;;;14.36;66.61
9187;BME280;7273;48.902;9.410;2023-05-22T03:20:44;97609.59;;;14.35;66.78
9187;BME280;7273;48.902;9.410;2023-05-22T03:23:10;97608.16;;;14.38;66.83
9187;BME280;7273;48.902;9.410;2023-05-22T03:25:37;97608.47;;;14.36;66.80
9187;BME280;7273;48.902;9.410;2023-05-22T03:28:02;97611.88;;;14.42;66.70
9187;BME280;7273;48.902;9.410;2023-05-22T03:30:27;97598.28;;;14.42;66.49
9187;BME280;7273;48.902;9.410;2023-05-22T03:32:53;97613.78;;;14.41;66.74
9187;BME280;7273;48.902;9.410;2023-05-22T03:35:18;97615.19;;;14.39;66.83
9187;BME280;7273;48.902;9.410;2023-05-22T03:37:47;97607.22;;;14.42;66.76
9187;BME280;7273;48.902;9.410;2023-05-22T03:40:12;97617.97;;;14.47;71.18
9187;BME280;7273;48.902;9.410;2023-05-22T03:42:37;97621.00;;;14.46;67.51
9187;BME280;7273;48.902;9.410;2023-05-22T03:45:03;97623.53;;;14.42;67.76
9187;BME280;7273;48.902;9.410;2023-05-22T03:47:29;97635.56;;;14.41;67.67
9187;BME280;7273;48.902;9.410;2023-05-22T03:49:54;97633.81;;;14.45;66.92
9187;BME280;7273;48.902;9.410;2023-05-22T03:52:21;97641.50;;;14.43;67.08
9187;BME280;7273;48.902;9.410;2023-05-22T03:54:46;97637.34;;;14.46;67.56
9187;BME280;7273;48.902;9.410;2023-05-22T03:57:12;97635.94;;;14.48;67.20
9187;BME280;7273;48.902;9.410;2023-05-22T03:59:38;97636.38;;;14.50;67.04
9187;BME280;7273;48.902;9.410;2023-05-22T04:02:03;97637.69;;;14.53;67.03
9187;BME280;7273;48.902;9.410;2023-05-22T04:04:29;97647.09;;;14.47;67.21
9187;BME280;7273;48.902;9.410;2023-05-22T04:06:56;97649.97;;;14.42;67.44
9187;BME280;7273;48.902;9.410;2023-05-22T04:09:30;97649.97;;;14.42;67.43
9187;BME280;7273;48.902;9.410;2023-05-22T04:11:55;97642.41;;;14.39;67.43
9187;BME280;7273;48.902;9.410;2023-05-22T04:14:21;97653.59;;;14.37;67.41
9187;BME280;7273;48.902;9.410;2023-05-22T04:16:46;97656.56;;;14.27;67.46
9187;BME280;7273;48.902;9.410;2023-05-22T04:19:11;97655.22;;;14.38;67.24
9187;BME280;7273;48.902;9.410;2023-05-22T04:21:38;97658.72;;;14.39;67.36
9187;BME280;7273;48.902;9.410;2023-05-22T04:24:03;97655.09;;;14.43;67.27
9187;BME280;7273;48.902;9.410;2023-05-22T04:26:34;97653.97;;;14.44;67.09
9187;BME280;7273;48.902;9.410;2023-05-22T04:29:00;97651.44;;;14.48;66.87
9187;BME280;7273;48.902;9.410;2023-05-22T04:31:26;97654.78;;;14.45;67.29
9187;BME280;7273;48.902;9.410;2023-05-22T04:33:52;97663.56;;;14.42;67.44
9187;BME280;7273;48.902;9.410;2023-05-22T04:36:19;97660.22;;;14.45;67.65
9187;BME280;7273;48.902;9.410;2023-05-22T04:38:49;97662.63;;;14.46;67.61
9187;BME280;7273;48.902;9.410;2023-05-22T04:41:15;97665.84;;;14.48;67.63
9187;BME280;7273;48.902;9.410;2023-05-22T04:43:45;97659.16;;;14.54;67.57
9187;BME280;7273;48.902;9.410;2023-05-22T04:46:13;97666.69;;;14.57;67.48
9187;BME280;7273;48.902;9.410;2023-05-22T04:48:38;97667.69;;;14.61;67.41
9187;BME280;7273;48.902;9.410;2023-05-22T04:51:04;97664.66;;;14.63;67.79
9187;BME280;7273;48.902;9.410;2023-05-22T04:53:30;97673.78;;;14.67;67.33
9187;BME280;7273;48.902;9.410;2023-05-22T04:55:58;97673.47;;;14.68;67.57
9187;BME280;7273;48.902;9.410;2023-05-22T04:58:23;97677.31;;;14.67;68.08
9187;BME280;7273;48.902;9.410;2023-05-22T05:00:52;97678.28;;;14.71;68.10
9187;BME280;7273;48.902;9.410;2023-05-22T05:03:18;97669.84;;;14.81;67.64
9187;BME280;7273;48.902;9.410;2023-05-22T05:05:43;97676.47;;;14.89;67.58
9187;BME280;7273;48.902;9.410;2023-05-22T05:08:09;97673.78;;;14.98;67.66
9187;BME280;7273;48.902;9.410;2023-05-22T05:10:35;97671.59;;;15.08;67.45
9187;BME280;7273;48.902;9.410;2023-05-22T05:13:00;97667.00;;;15.17;67.55
9187;BME280;7273;48.902;9.410;2023-05-22T05:15:25;97675.97;;;15.26;67.17
9187;BME280;7273;48.902;9.410;2023-05-22T05:17:51;97669.06;;;15.29;67.36
9187;BME280;7273;48.902;9.410;2023-05-22T05:20:17;97672.34;;;15.39;67.27
9187;BME280;7273;48.902;9.410;2023-05-22T05:22:42;97677.50;;;15.49;67.22
9187;BME280;7273;48.902;9.410;2023-05-22T05:25:10;97674.16;;;15.52;67.51
9187;BME280;7273;48.902;9.410;2023-05-22T05:27:35;97674.34;;;15.64;67.50
9187;BME280;7273;48.902;9.410;2023-05-22T05:30:01;97673.22;;;15.74;67.36
9187;BME280;7273;48.902;9.410;2023-05-22T05:32:26;97674.19;;;15.86;67.22
9187;BME280;7273;48.902;9.410;2023-05-22T05:34:52;97679.16;;;15.93;67.37
9187;BME280;7273;48.902;9.410;2023-05-22T05:37:17;97679.81;;;15.98;67.25
9187;BME280;7273;48.902;9.410;2023-05-22T05:39:43;97685.63;;;16.05;67.13
9187;BME280;7273;48.902;9.410;2023-05-22T05:42:08;97678.38;;;16.09;67.22
9187;BME280;7273;48.902;9.410;2023-05-22T05:44:34;97680.13;;;16.14;67.53
9187;BME280;7273;48.902;9.410;2023-05-22T05:46:59;97684.16;;;16.25;67.33
9187;BME280;7273;48.902;9.410;2023-05-22T05:49:26;97687.69;;;16.34;67.14
9187;BME280;7273;48.902;9.410;2023-05-22T05:51:51;97687.50;;;16.39;67.46
9187;BME280;7273;48.902;9.410;2023-05-22T05:54:16;97688.66;;;16.47;67.25
9187;BME280;7273;48.902;9.410;2023-05-22T05:56:42;97688.78;;;16.59;66.90
9187;BME280;7273;48.902;9.410;2023-05-22T05:59:07;97684.91;;;16.68;67.03
9187;BME280;7273;48.902;9.410;2023-05-22T06:01:34;97681.50;;;16.80;66.94
9187;BME280;7273;48.902;9.410;2023-05-22T06:04:00;97689.69;;;16.88;66.89
9187;BME280;7273;48.902;9.410;2023-05-22T06:06:30;97680.00;;;16.99;66.76
9187;BME280;7273;48.902;9.410;2023-05-22T06:09:03;97681.44;;;17.05;67.01
9187;BME280;7273;48.902;9.410;2023-05-22T06:11:30;97688.41;;;17.23;66.69
9187;BME280;7273;48.902;9.410;2023-05-22T06:13:56;97680.97;;;17.41;66.45
9187;BME280;7273;48.902;9.410;2023-05-22T06:16:26;97682.22;;;17.52;66.07
9187;BME280;7273;48.902;9.410;2023-05-22T06:18:52;97682.16;;;17.61;66.22
9187;BME280;7273;48.902;9.410;2023-05-22T06:21:18;97683.03;;;17.73;66.07
9187;BME280;7273;48.902;9.410;2023-05-22T06:23:47;97686.06;;;17.80;66.07
9187;BME280;7273;48.902;9.410;2023-05-22T06:26:12;97685.91;;;17.97;65.77
9187;BME280;7273;48.902;9.410;2023-05-22T06:28:39;97684.66;;;18.15;65.48
9187;BME280;7273;48.902;9.410;2023-05-22T06:31:04;97681.44;;;18.34;65.10
9187;BME280;7273;48.902;9.410;2023-05-22T06:33:30;97687.47;;;18.48;64.92
9187;BME280;7273;48.902;9.410;2023-05-22T06:35:56;97681.19;;;18.47;65.07
9187;BME280;7273;48.902;9.410;2023-05-22T06:38:21;97681.34;;;18.63;65.05
9187;BME280;7273;48.902;9.410;2023-05-22T06:40:47;97676.28;;;18.86;64.76
9187;BME280;7273;48.902;9.410;2023-05-22T06:43:12;97673.09;;;18.96;64.65
9187;BME280;7273;48.902;9.410;2023-05-22T06:45:37;97671.75;;;19.14;64.34
9187;BME280;7273;48.902;9.410;2023-05-22T06:48:03;97681.25;;;19.16;64.55
9187;BME280;7273;48.902;9.410;2023-05-22T06:50:29;97677.59;;;19.00;65.17
9187;BME280;7273;48.902;9.410;2023-05-22T06:52:55;97683.50;;;18.90;65.43
9187;BME280;7273;48.902;9.410;2023-05-22T06:55:20;97680.53;;;19.07;65.14
9187;BME280;7273;48.902;9.410;2023-05-22T06:57:46;97680.56;;;19.19;65.01
9187;BME280;7273;48.902;9.410;2023-05-22T07:00:12;97678.97;;;19.18;65.18
9187;BME280;7273;48.902;9.410;2023-05-22T07:02:37;97685.81;;;19.12;65.24
9187;BME280;7273;48.902;9.410;2023-05-22T07:05:04;97689.03;;;19.14;65.32
9187;BME280;7273;48.902;9.410;2023-05-22T07:07:29;97691.91;;;19.30;65.07
9187;BME280;7273;48.902;9.410;2023-05-22T07:09:55;97692.03;;;19.45;64.98
9187;BME280;7273;48.902;9.410;2023-05-22T07:12:20;97694.97;;;19.28;65.72
9187;BME280;7273;48.902;9.410;2023-05-22T07:14:50;97697.97;;;19.59;65.21
9187;BME280;7273;48.902;9.410;2023-05-22T07:17:16;97698.66;;;19.56;65.34
9187;BME280;7273;48.902;9.410;2023-05-22T07:19:42;97693.97;;;19.45;65.98
9187;BME280;7273;48.902;9.410;2023-05-22T07:22:08;97700.94;;;19.54;65.72
9187;BME280;7273;48.902;9.410;2023-05-22T07:24:33;97692.47;;;19.59;65.74
9187;BME280;7273;48.902;9.410;2023-05-22T07:26:59;97700.38;;;19.85;65.33
9187;BME280;7273;48.902;9.410;2023-05-22T07:29:25;97688.81;;;19.91;65.42
9187;BME280;7273;48.902;9.410;2023-05-22T07:31:50;97697.03;;;19.91;65.46
9187;BME280;7273;48.902;9.410;2023-05-22T07:34:16;97695.88;;;20.04;65.46
9187;BME280;7273;48.902;9.410;2023-05-22T07:36:41;97699.38;;;20.29;65.09
9187;BME280;7273;48.902;9.410;2023-05-22T07:39:07;97694.66;;;20.42;64.97
9187;BME280;7273;48.902;9.410;2023-05-22T07:41:33;97698.06;;;20.51;64.93
9187;BME280;7273;48.902;9.410;2023-05-22T07:43:59;97693.19;;;20.32;65.40
9187;BME280;7273;48.902;9.410;2023-05-22T07:46:24;97697.81;;;20.56;64.96
9187;BME280;7273;48.902;9.410;2023-05-22T07:48:50;97701.03;;;20.73;64.77
9187;BME280;7273;48.902;9.410;2023-05-22T07:51:15;97700.78;;;20.78;64.91
9187;BME280;7273;48.902;9.410;2023-05-22T07:53:40;97699.56;;;20.91;64.70
9187;BME280;7273;48.902;9.410;2023-05-22T07:56:06;97705.72;;;21.00;64.70
9187;BME280;7273;48.902;9.410;2023-05-22T07:58:31;97706.22;;;20.90;64.87
9187;BME280;7273;48.902;9.410;2023-05-22T08:00:58;97702.47;;;20.83;65.18
9187;BME280;7273;48.902;9.410;2023-05-22T08:03:23;97703.44;;;21.02;64.92
9187;BME280;7273;48.902;9.410;2023-05-22T08:05:48;97706.91;;;21.15;64.69
9187;BME280;7273;48.902;9.410;2023-05-22T08:08:14;97699.63;;;21.07;65.13
9187;BME280;7273;48.902;9.410;2023-05-22T08:10:39;97704.78;;;21.24;64.65
9187;BME280;7273;48.902;9.410;2023-05-22T08:13:05;97703.81;;;21.32;64.49
9187;BME280;7273;48.902;9.410;2023-05-22T08:15:31;97704.78;;;21.55;64.29
9187;BME280;7273;48.902;9.410;2023-05-22T08:17:57;97703.00;;;21.63;64.15
9187;BME280;7273;48.902;9.410;2023-05-22T08:20:22;97701.84;;;21.48;64.52
9187;BME280;7273;48.902;9.410;2023-05-22T08:22:48;97702.38;;;21.69;64.26
9187;BME280;7273;48.902;9.410;2023-05-22T08:25:13;97712.66;;;21.72;64.25
9187;BME280;7273;48.902;9.410;2023-05-22T08:27:38;97702.56;;;21.45;64.70
9187;BME280;7273;48.902;9.410;2023-05-22T08:30:05;97704.16;;;21.46;64.82
9187;BME280;7273;48.902;9.410;2023-05-22T08:32:30;97709.03;;;21.68;64.23
9187;BME280;7273;48.902;9.410;2023-05-22T08:34:56;97709.19;;;21.91;63.87
9187;BME280;7273;48.902;9.410;2023-05-22T08:37:21;97704.72;;;22.02;63.94
9187;BME280;7273;48.902;9.410;2023-05-22T08:39:46;97697.28;;;21.87;64.33
9187;BME280;7273;48.902;9.410;2023-05-22T08:42:12;97705.50;;;21.83;64.38
9187;BME280;7273;48.902;9.410;2023-05-22T08:44:38;97704.00;;;22.05;64.02
9187;BME280;7273;48.902;9.410;2023-05-22T08:47:03;97696.75;;;21.97;64.30
9187;BME280;7273;48.902;9.410;2023-05-22T08:49:34;97691.19;;;22.12;64.08
9187;BME280;7273;48.902;9.410;2023-05-22T08:52:06;97697.28;;;22.21;63.78
9187;BME280;7273;48.902;9.410;2023-05-22T08:54:35;97702.44;;;22.23;63.63
9187;BME280;7273;48.902;9.410;2023-05-22T08:57:03;97697.44;;;22.47;63.72
9187;BME280;7273;48.902;9.410;2023-05-22T08:59:29;97696.56;;;22.24;63.81
9187;BME280;7273;48.902;9.410;2023-05-22T09:01:55;97693.81;;;22.24;63.87
9187;BME280;7273;48.902;9.410;2023-05-22T09:04:23;97697.69;;;22.39;63.73
9187;BME280;7273;48.902;9.410;2023-05-22T09:06:48;97696.81;;;22.54;63.21
9187;BME280;7273;48.902;9.410;2023-05-22T09:09:14;97692.53;;;22.76;62.81
9187;BME280;7273;48.902;9.410;2023-05-22T09:11:40;97685.47;;;22.97;62.61
9187;BME280;7273;48.902;9.410;2023-05-22T09:14:07;97692.91;;;23.16;62.28
9187;BME280;7273;48.902;9.410;2023-05-22T09:16:32;97697.97;;;23.33;62.10
9187;BME280;7273;48.902;9.410;2023-05-22T09:19:07;97691.47;;;23.44;62.09
9187;BME280;7273;48.902;9.410;2023-05-22T09:21:35;97693.03;;;23.68;61.78
9187;BME280;7273;48.902;9.410;2023-05-22T09:24:01;97694.03;;;23.56;61.91
9187;BME280;7273;48.902;9.410;2023-05-22T09:26:27;97696.31;;;23.77;61.55
9187;BME280;7273;48.902;9.410;2023-05-22T09:29:01;97692.28;;;23.71;61.59
9187;BME280;7273;48.902;9.410;2023-05-22T09:31:27;97691.44;;;23.67;61.77
9187;BME280;7273;48.902;9.410;2023-05-22T09:33:53;97696.63;;;23.72;62.19
9187;BME280;7273;48.902;9.410;2023-05-22T09:36:20;97695.81;;;23.68;61.93
9187;BME280;7273;48.902;9.410;2023-05-22T09:38:46;97691.88;;;23.95;61.87
9187;BME280;7273;48.902;9.410;2023-05-22T09:41:11;97702.31;;;24.05;61.45
9187;BME280;7273;48.902;9.410;2023-05-22T09:43:37;97695.28;;;24.11;61.58
9187;BME280;7273;48.902;9.410;2023-05-22T09:46:02;97688.97;;;23.84;61.73
9187;BME280;7273;48.902;9.410;2023-05-22T09:48:32;97687.84;;;23.89;61.75
9187;BME280;7273;48.902;9.410;2023-05-22T09:50:59;97686.91;;;24.04;61.52
9187;BME280;7273;48.902;9.410;2023-05-22T09:53:26;97680.19;;;24.05;61.92
9187;BME280;7273;48.902;9.410;2023-05-22T09:55:55;97680.94;;;24.02;61.44
9187;BME280;7273;48.902;9.410;2023-05-22T09:58:24;97679.59;;;24.19;61.42
9187;BME280;7273;48.902;9.410;2023-05-22T10:00:51;97680.75;;;24.47;61.21
9187;BME280;7273;48.902;9.410;2023-05-22T10:03:21;97680.06;;;24.54;60.96
9187;BME280;7273;48.902;9.410;2023-05-22T10:05:49;97681.28;;;24.56;61.12
9187;BME280;7273;48.902;9.410;2023-05-22T10:08:24;97681.09;;;24.42;60.81
9187;BME280;7273;48.902;9.410;2023-05-22T10:10:50;97678.41;;;24.49;60.94
9187;BME280;7273;48.902;9.410;2023-05-22T10:13:17;97683.63;;;24.54;60.91
9187;BME280;7273;48.902;9.410;2023-05-22T10:15:46;97675.41;;;24.61;60.69
9187;BME280;7273;48.902;9.410;2023-05-22T10:18:11;97678.28;;;24.68;58.42
9187;BME280;7273;48.902;9.410;2023-05-22T10:20:37;97668.53;;;24.81;60.13
9187;BME280;7273;48.902;9.410;2023-05-22T10:23:03;97676.50;;;24.86;60.32
9187;BME280;7273;48.902;9.410;2023-05-22T10:25:30;97668.19;;;24.83;59.68
9187;BME280;7273;48.902;9.410;2023-05-22T10:27:56;97669.78;;;24.84;59.41
9187;BME280;7273;48.902;9.410;2023-05-22T10:30:28;97669.84;;;24.91;59.17
9187;BME280;7273;48.902;9.410;2023-05-22T10:32:58;97668.75;;;24.99;56.71
9187;BME280;7273;48.902;9.410;2023-05-22T10:35:46;97670.84;;;25.12;58.65
9187;BME280;7273;48.902;9.410;2023-05-22T10:40:56;97677.94;;;25.47;59.00
9187;BME280;7273;48.902;9.410;2023-05-22T10:43:22;97670.59;;;25.72;58.84
9187;BME280;7273;48.902;9.410;2023-05-22T10:45:48;97664.78;;;25.87;58.68
9187;BME280;7273;48.902;9.410;2023-05-22T10:48:13;97668.09;;;26.07;58.53
9187;BME280;7273;48.902;9.410;2023-05-22T10:50:49;97665.88;;;26.37;58.18
9187;BME280;7273;48.902;9.410;2023-05-22T10:55:56;97665.28;;;26.79;57.12
9187;BME280;7273;48.902;9.410;2023-05-22T10:58:30;97649.47;;;27.00;56.82
9187;BME280;7273;48.902;9.410;2023-05-22T11:01:15;97647.94;;;27.31;52.88
9187;BME280;7273;48.902;9.410;2023-05-22T11:04:00;97651.13;;;27.64;55.41
9187;BME280;7273;48.902;9.410;2023-05-22T11:09:28;97651.69;;;28.70;53.64
9187;BME280;7273;48.902;9.410;2023-05-22T11:17:30;97650.88;;;30.27;54.17
9187;BME280;7273;48.902;9.410;2023-05-22T11:20:04;97649.59;;;30.69;53.04
9187;BME280;7273;48.902;9.410;2023-05-22T11:22:35;97649.31;;;30.90;53.30
9187;BME280;7273;48.902;9.410;2023-05-22T11:25:31;97647.81;;;31.88;49.28
9187;BME280;7273;48.902;9.410;2023-05-22T11:27:57;97642.50;;;32.56;53.43
9187;BME280;7273;48.902;9.410;2023-05-22T11:30:26;97645.16;;;32.83;52.34
9187;BME280;7273;48.902;9.410;2023-05-22T11:32:52;97647.72;;;33.29;52.87
9187;BME280;7273;48.902;9.410;2023-05-22T11:35:20;97644.41;;;33.34;52.93
9187;BME280;7273;48.902;9.410;2023-05-22T11:37:47;97641.25;;;34.12;52.14
9187;BME280;7273;48.902;9.410;2023-05-22T11:40:18;97640.84;;;34.42;50.67
9187;BME280;7273;48.902;9.410;2023-05-22T11:42:43;97632.50;;;33.94;52.78
9187;BME280;7273;48.902;9.410;2023-05-22T11:45:10;97628.31;;;33.54;53.37
9187;BME280;7273;48.902;9.410;2023-05-22T11:47:36;97634.38;;;34.58;52.24
9187;BME280;7273;48.902;9.410;2023-05-22T11:50:02;97625.81;;;35.02;51.07
9187;BME280;7273;48.902;9.410;2023-05-22T11:52:31;97629.13;;;35.39;50.72
9187;BME280;7273;48.902;9.410;2023-05-22T11:54:58;97616.00;;;35.70;50.40
9187;BME280;7273;48.902;9.410;2023-05-22T11:57:23;97623.47;;;36.10;49.82
9187;BME280;7273;48.902;9.410;2023-05-22T11:59:49;97619.78;;;36.22;49.70
9187;BME280;7273;48.902;9.410;2023-05-22T12:02:15;97609.88;;;36.52;49.66
9187;BME280;7273;48.902;9.410;2023-05-22T12:04:41;97618.09;;;36.81;49.31
9187;BME280;7273;48.902;9.410;2023-05-22T12:07:07;97612.69;;;37.04;48.88
9187;BME280;7273;48.902;9.410;2023-05-22T12:09:33;97610.34;;;37.03;48.50
9187;BME280;7273;48.902;9.410;2023-05-22T12:11:58;97603.97;;;36.59;48.35
9187;BME280;7273;48.902;9.410;2023-05-22T12:14:28;97603.13;;;36.50;47.37
9187;BME280;7273;48.902;9.410;2023-05-22T12:16:56;97594.75;;;36.03;46.75
9187;BME280;7273;48.902;9.410;2023-05-22T12:19:23;97602.63;;;35.61;35.26
9187;BME280;7273;48.902;9.410;2023-05-22T12:21:49;97601.50;;;36.05;47.15
9187;BME280;7273;48.902;9.410;2023-05-22T12:24:14;97599.63;;;36.24;46.67
9187;BME280;7273;48.902;9.410;2023-05-22T12:26:48;97595.53;;;35.57;45.34
9187;BME280;7273;48.902;9.410;2023-05-22T12:29:13;97593.94;;;35.68;47.44
9187;BME280;7273;48.902;9.410;2023-05-22T12:31:39;97581.38;;;35.82;46.50
9187;BME280;7273;48.902;9.410;2023-05-22T12:34:07;97588.47;;;35.40;46.21
9187;BME280;7273;48.902;9.410;2023-05-22T12:36:43;97588.22;;;35.21;46.67
9187;BME280;7273;48.902;9.410;2023-05-22T12:39:14;97575.69;;;34.60;46.85
9187;BME280;7273;48.902;9.410;2023-05-22T12:41:40;97574.13;;;34.02;47.01
9187;BME280;7273;48.902;9.410;2023-05-22T12:44:06;97584.78;;;33.94;46.79
9187;BME280;7273;48.902;9.410;2023-05-22T12:46:32;97583.56;;;32.99;47.15
9187;BME280;7273;48.902;9.410;2023-05-22T12:48:59;97586.56;;;33.08;46.05
9187;BME280;7273;48.902;9.410;2023-05-22T12:51:29;97585.44;;;32.86;45.67
9187;BME280;7273;48.902;9.410;2023-05-22T12:53:59;97584.59;;;32.30;45.46
9187;BME280;7273;48.902;9.410;2023-05-22T12:56:25;97583.03;;;31.67;46.14
9187;BME280;7273;48.902;9.410;2023-05-22T12:58:51;97583.94;;;31.60;46.23
9187;BME280;7273;48.902;9.410;2023-05-22T13:01:17;97579.91;;;31.38;46.29
9187;BME280;7273;48.902;9.410;2023-05-22T13:03:42;97581.56;;;31.09;46.24
9187;BME280;7273;48.902;9.410;2023-05-22T13:06:08;97586.16;;;30.96;46.23
9187;BME280;7273;48.902;9.410;2023-05-22T13:08:33;97585.44;;;30.32;46.65
9187;BME280;7273;48.902;9.410;2023-05-22T13:10:59;97578.78;;;30.22;46.40
9187;BME280;7273;48.902;9.410;2023-05-22T13:13:24;97574.47;;;30.14;46.38
9187;BME280;7273;48.902;9.410;2023-05-22T13:15:51;97569.28;;;30.12;46.32
9187;BME280;7273;48.902;9.410;2023-05-22T13:18:16;97571.00;;;30.03;46.38
9187;BME280;7273;48.902;9.410;2023-05-22T13:20:41;97570.22;;;30.02;46.28
9187;BME280;7273;48.902;9.410;2023-05-22T13:23:07;97566.38;;;29.89;45.96
9187;BME280;7273;48.902;9.410;2023-05-22T13:25:33;97568.88;;;29.80;46.24
9187;BME280;7273;48.902;9.410;2023-05-22T13:27:59;97566.13;;;29.77;45.99
9187;BME280;7273;48.902;9.410;2023-05-22T13:30:25;97568.94;;;29.73;45.84
9187;BME280;7273;48.902;9.410;2023-05-22T13:32:50;97561.78;;;29.72;45.54
9187;BME280;7273;48.902;9.410;2023-05-22T13:35:16;97558.66;;;29.67;45.56
9187;BME280;7273;48.902;9.410;2023-05-22T13:37:42;97559.44;;;29.64;45.66
9187;BME280;7273;48.902;9.410;2023-05-22T13:40:08;97555.88;;;29.63;45.55
9187;BME280;7273;48.902;9.410;2023-05-22T13:42:33;97560.00;;;29.48;45.49
9187;BME280;7273;48.902;9.410;2023-05-22T13:44:59;97558.44;;;29.44;45.15
9187;BME280;7273;48.902;9.410;2023-05-22T13:47:24;97552.34;;;29.15;45.49